createdAt,value
2017-10-19T00:00:53.177Z,0
2017-10-19T00:01:52.887Z,0
2017-10-19T00:02:53.168Z,0
2017-10-19T00:03:53.139Z,0
2017-10-19T00:04:53.441Z,0
2017-10-19T00:05:52.781Z,0
2017-10-19T00:06:53.071Z,0
2017-10-19T00:07:52.891Z,0
2017-10-19T00:08:52.719Z,0
2017-10-19T00:09:52.720Z,0
2017-10-19T00:10:53.053Z,0
2017-10-19T00:11:53.008Z,0
2017-10-19T00:12:52.969Z,0
2017-10-19T00:13:52.740Z,0
2017-10-19T00:14:52.929Z,0
2017-10-19T00:15:52.915Z,0
2017-10-19T00:16:52.892Z,0
2017-10-19T00:17:53.197Z,0
2017-10-19T00:18:53.186Z,0
2017-10-19T00:19:53.181Z,0
2017-10-19T00:20:52.830Z,0
2017-10-19T00:21:52.912Z,0
2017-10-19T00:22:52.791Z,0
2017-10-19T00:23:52.777Z,0
2017-10-19T00:24:52.430Z,0
2017-10-19T00:25:53.081Z,0
2017-10-19T00:26:53.040Z,0
2017-10-19T00:27:53.004Z,0
2017-10-19T00:28:52.672Z,0
2017-10-19T00:29:52.961Z,0
2017-10-19T00:30:52.970Z,0
2017-10-19T00:31:52.631Z,0
2017-10-19T00:32:52.951Z,0
2017-10-19T00:33:52.583Z,0
2017-10-19T00:34:52.239Z,0
2017-10-19T00:35:52.878Z,0
2017-10-19T00:36:52.882Z,0
2017-10-19T00:37:52.870Z,0
2017-10-19T00:38:52.500Z,0
2017-10-19T00:39:52.811Z,0
2017-10-19T00:40:52.776Z,0
2017-10-19T00:41:52.762Z,0
2017-10-19T00:42:52.429Z,0
2017-10-19T00:43:52.763Z,0
2017-10-19T00:44:52.725Z,0
2017-10-19T00:45:52.704Z,0
2017-10-19T00:46:52.355Z,0
2017-10-19T00:47:52.675Z,0
2017-10-19T00:48:51.987Z,0
2017-10-19T00:49:52.001Z,0
2017-10-19T00:50:52.268Z,0
2017-10-19T00:51:52.589Z,0
2017-10-19T00:52:52.237Z,0
2017-10-19T00:53:52.544Z,0
2017-10-19T00:54:52.259Z,0
2017-10-19T00:55:51.872Z,0
2017-10-19T00:56:52.514Z,0
2017-10-19T00:57:51.813Z,0
2017-10-19T00:58:52.152Z,0
2017-10-19T00:59:52.102Z,0
2017-10-19T01:00:51.759Z,0
2017-10-19T01:01:52.391Z,0
2017-10-19T01:02:52.054Z,0
2017-10-19T01:03:52.355Z,0
2017-10-19T01:04:52.112Z,0
2017-10-19T01:05:52.003Z,0
2017-10-19T01:06:51.981Z,0
2017-10-19T01:07:51.981Z,0
2017-10-19T01:08:51.946Z,0
2017-10-19T01:09:52.261Z,0
2017-10-19T01:10:51.584Z,0
2017-10-19T01:11:52.232Z,0
2017-10-19T01:12:52.179Z,0
2017-10-19T01:13:51.852Z,0
2017-10-19T01:14:51.593Z,0
2017-10-19T01:15:51.850Z,0
2017-10-19T01:16:51.781Z,0
2017-10-19T01:17:51.859Z,0
2017-10-19T01:18:52.133Z,0
2017-10-19T01:19:51.740Z,0
2017-10-19T01:20:51.702Z,0
2017-10-19T01:21:51.049Z,0
2017-10-19T01:22:52.022Z,0
2017-10-19T01:23:51.763Z,0
2017-10-19T01:24:51.978Z,0
2017-10-19T01:25:51.639Z,0
2017-10-19T01:26:51.283Z,0
2017-10-19T01:27:51.591Z,0
2017-10-19T01:28:51.572Z,0
2017-10-19T01:29:51.221Z,0
2017-10-19T01:30:51.865Z,0
2017-10-19T01:31:51.603Z,0
2017-10-19T01:32:51.825Z,0
2017-10-19T01:33:51.471Z,0
2017-10-19T01:34:50.902Z,0
2017-10-19T01:35:51.754Z,0
2017-10-19T01:36:51.755Z,0
2017-10-19T01:37:51.496Z,0
2017-10-19T01:38:51.408Z,0
2017-10-19T01:39:51.112Z,0
2017-10-19T01:40:51.091Z,0
2017-10-19T01:41:51.639Z,0
2017-10-19T01:42:51.673Z,0
2017-10-19T01:43:51.270Z,0
2017-10-19T01:44:50.607Z,0
2017-10-19T01:45:50.930Z,0
2017-10-19T01:46:51.564Z,0
2017-10-19T01:47:50.551Z,0
2017-10-19T01:48:51.502Z,0
2017-10-19T01:49:50.517Z,0
2017-10-19T01:50:51.162Z,0
2017-10-19T01:51:51.460Z,0
2017-10-19T01:52:50.798Z,0
2017-10-19T01:53:51.102Z,0
2017-10-19T01:54:51.441Z,0
2017-10-19T01:55:51.382Z,0
2017-10-19T01:56:51.049Z,0
2017-10-19T01:57:51.341Z,0
2017-10-19T01:58:50.680Z,0
2017-10-19T01:59:50.963Z,0
2017-10-19T02:00:51.283Z,0
2017-10-19T02:01:50.980Z,0
2017-10-19T02:02:50.931Z,0
2017-10-19T02:03:50.585Z,0
2017-10-19T02:04:50.571Z,0
2017-10-19T02:05:50.543Z,0
2017-10-19T02:06:50.843Z,0
2017-10-19T02:07:50.838Z,0
2017-10-19T02:08:50.484Z,0
2017-10-19T02:09:50.780Z,0
2017-10-19T02:10:51.105Z,0
2017-10-19T02:11:51.081Z,0
2017-10-19T02:12:50.806Z,0
2017-10-19T02:13:50.714Z,0
2017-10-19T02:14:50.367Z,0
2017-10-19T02:15:50.670Z,0
2017-10-19T02:16:50.668Z,0
2017-10-19T02:17:50.361Z,0
2017-10-19T02:18:50.312Z,0
2017-10-19T02:19:50.601Z,0
2017-10-19T02:20:50.900Z,0
2017-10-19T02:21:50.570Z,0
2017-10-19T02:22:50.581Z,0
2017-10-19T02:23:50.535Z,0
2017-10-19T02:24:50.529Z,0
2017-10-19T02:25:50.170Z,0
2017-10-19T02:26:49.830Z,0
2017-10-19T02:27:50.467Z,0
2017-10-19T02:28:50.432Z,0
2017-10-19T02:29:50.471Z,0
2017-10-19T02:30:49.754Z,0
2017-10-19T02:31:50.043Z,0
2017-10-19T02:32:50.352Z,0
2017-10-19T02:33:50.340Z,0
2017-10-19T02:34:50.319Z,0
2017-10-19T02:35:50.303Z,0
2017-10-19T02:36:50.302Z,0
2017-10-19T02:37:50.278Z,0
2017-10-19T02:38:50.582Z,0
2017-10-19T02:39:50.251Z,0
2017-10-19T02:40:49.995Z,0
2017-10-19T02:41:50.522Z,0
2017-10-19T02:42:50.179Z,0
2017-10-19T02:43:50.493Z,0
2017-10-19T02:44:50.510Z,0
2017-10-19T02:45:50.448Z,0
2017-10-19T02:46:50.415Z,0
2017-10-19T02:47:50.426Z,0
2017-10-19T02:48:49.803Z,0
2017-10-19T02:49:50.370Z,0
2017-10-19T02:50:49.710Z,0
2017-10-19T02:51:50.324Z,0
2017-10-19T02:52:50.318Z,0
2017-10-19T02:53:50.315Z,0
2017-10-19T02:54:50.277Z,0
2017-10-19T02:55:49.980Z,0
2017-10-19T02:56:50.242Z,0
2017-10-19T02:57:49.590Z,0
2017-10-19T02:58:49.547Z,0
2017-10-19T02:59:50.172Z,0
2017-10-19T03:00:50.172Z,0
2017-10-19T03:01:49.925Z,0
2017-10-19T03:02:49.809Z,0
2017-10-19T03:03:49.500Z,0
2017-10-19T03:04:49.444Z,0
2017-10-19T03:05:49.459Z,0
2017-10-19T03:06:50.046Z,0
2017-10-19T03:07:49.699Z,0
2017-10-19T03:08:49.677Z,0
2017-10-19T03:09:49.805Z,0
2017-10-19T03:10:49.960Z,0
2017-10-19T03:11:49.963Z,0
2017-10-19T03:12:49.955Z,0
2017-10-19T03:13:49.921Z,0
2017-10-19T03:14:49.890Z,0
2017-10-19T03:15:49.858Z,0
2017-10-19T03:16:49.850Z,0
2017-10-19T03:17:49.602Z,0
2017-10-19T03:18:49.487Z,0
2017-10-19T03:19:49.820Z,0
2017-10-19T03:20:49.502Z,0
2017-10-19T03:21:48.792Z,0
2017-10-19T03:22:49.510Z,0
2017-10-19T03:23:49.393Z,0
2017-10-19T03:24:49.703Z,0
2017-10-19T03:25:48.706Z,0
2017-10-19T03:26:49.344Z,0
2017-10-19T03:27:49.651Z,0
2017-10-19T03:28:48.670Z,0
2017-10-19T03:29:49.390Z,0
2017-10-19T03:30:49.269Z,0
2017-10-19T03:31:49.236Z,0
2017-10-19T03:32:48.909Z,0
2017-10-19T03:33:49.541Z,0
2017-10-19T03:34:49.516Z,0
2017-10-19T03:35:49.209Z,0
2017-10-19T03:36:49.491Z,0
2017-10-19T03:37:49.470Z,0
2017-10-19T03:38:49.154Z,0
2017-10-19T03:39:49.429Z,0
2017-10-19T03:40:49.078Z,0
2017-10-19T03:41:49.048Z,0
2017-10-19T03:42:48.720Z,0
2017-10-19T03:43:49.361Z,0
2017-10-19T03:44:48.664Z,0
2017-10-19T03:45:49.310Z,0
2017-10-19T03:46:49.060Z,0
2017-10-19T03:47:49.261Z,0
2017-10-19T03:48:49.249Z,0
2017-10-19T03:49:48.900Z,0
2017-10-19T03:50:49.220Z,0
2017-10-19T03:51:48.865Z,0
2017-10-19T03:52:48.950Z,0
2017-10-19T03:53:48.829Z,0
2017-10-19T03:54:48.802Z,0
2017-10-19T03:55:49.141Z,0
2017-10-19T03:56:48.768Z,0
2017-10-19T03:57:48.761Z,0
2017-10-19T03:58:48.413Z,0
2017-10-19T03:59:48.644Z,0
2017-10-19T04:00:48.692Z,0
2017-10-19T04:01:48.680Z,0
2017-10-19T04:02:47.997Z,0
2017-10-19T04:03:48.958Z,0
2017-10-19T04:04:48.621Z,0
2017-10-19T04:05:48.596Z,0
2017-10-19T04:06:48.624Z,0
2017-10-19T04:07:48.559Z,0
2017-10-19T04:08:48.550Z,0
2017-10-19T04:09:48.190Z,0
2017-10-19T04:10:48.500Z,0
2017-10-19T04:11:48.468Z,0
2017-10-19T04:12:48.789Z,0
2017-10-19T04:13:48.441Z,0
2017-10-19T04:14:48.741Z,0
2017-10-19T04:15:48.390Z,0
2017-10-19T04:16:48.110Z,0
2017-10-19T04:17:48.041Z,0
2017-10-19T04:18:48.458Z,0
2017-10-19T04:19:48.321Z,0
2017-10-19T04:20:48.611Z,0
2017-10-19T04:21:47.965Z,0
2017-10-19T04:22:48.585Z,0
2017-10-19T04:23:48.249Z,0
2017-10-19T04:24:48.221Z,0
2017-10-19T04:25:48.517Z,0
2017-10-19T04:26:48.511Z,0
2017-10-19T04:27:48.206Z,0
2017-10-19T04:28:47.881Z,0
2017-10-19T04:29:48.130Z,0
2017-10-19T04:30:48.145Z,0
2017-10-19T04:31:48.101Z,0
2017-10-19T04:32:48.387Z,0
2017-10-19T04:33:48.146Z,0
2017-10-19T04:34:47.864Z,0
2017-10-19T04:35:48.351Z,0
2017-10-19T04:36:47.976Z,0
2017-10-19T04:37:48.022Z,0
2017-10-19T04:38:48.265Z,0
2017-10-19T04:39:48.261Z,0
2017-10-19T04:40:47.599Z,0
2017-10-19T04:41:47.914Z,0
2017-10-19T04:42:47.875Z,0
2017-10-19T04:43:47.884Z,0
2017-10-19T04:44:47.828Z,0
2017-10-19T04:45:47.830Z,0
2017-10-19T04:46:48.123Z,0
2017-10-19T04:47:47.837Z,0
2017-10-19T04:48:48.098Z,0
2017-10-19T04:49:48.060Z,0
2017-10-19T04:50:47.720Z,0
2017-10-19T04:51:48.042Z,0
2017-10-19T04:52:47.370Z,0
2017-10-19T04:53:47.688Z,0
2017-10-19T04:54:47.643Z,0
2017-10-19T04:55:47.984Z,0
2017-10-19T04:56:47.943Z,0
2017-10-19T04:57:47.962Z,0
2017-10-19T04:58:47.239Z,0
2017-10-19T04:59:47.877Z,0
2017-10-19T05:00:47.551Z,0
2017-10-19T05:01:47.863Z,0
2017-10-19T05:02:47.814Z,0
2017-10-19T05:03:47.171Z,0
2017-10-19T05:04:47.611Z,0
2017-10-19T05:05:47.439Z,0
2017-10-19T05:06:46.766Z,0
2017-10-19T05:07:46.757Z,0
2017-10-19T05:08:47.684Z,0
2017-10-19T05:09:47.702Z,0
2017-10-19T05:10:47.679Z,0
2017-10-19T05:11:47.635Z,0
2017-10-19T05:12:47.629Z,0
2017-10-19T05:13:47.275Z,0
2017-10-19T05:14:47.582Z,0
2017-10-19T05:15:47.252Z,0
2017-10-19T05:16:47.221Z,0
2017-10-19T05:17:47.201Z,0
2017-10-19T05:18:47.507Z,0
2017-10-19T05:19:47.156Z,0
2017-10-19T05:20:47.471Z,0
2017-10-19T05:21:47.440Z,0
2017-10-19T05:22:47.105Z,0
2017-10-19T05:23:46.770Z,0
2017-10-19T05:24:47.181Z,0
2017-10-19T05:25:47.051Z,0
2017-10-19T05:26:47.127Z,0
2017-10-19T05:27:47.333Z,0
2017-10-19T05:28:47.001Z,4
2017-10-19T05:29:46.681Z,0
2017-10-19T05:30:46.947Z,0
2017-10-19T05:31:46.926Z,4
2017-10-19T05:32:46.952Z,0
2017-10-19T05:33:46.886Z,4
2017-10-19T05:34:47.186Z,0
2017-10-19T05:35:47.181Z,4
2017-10-19T05:36:46.512Z,8
2017-10-19T05:37:46.820Z,8
2017-10-19T05:38:46.803Z,8
2017-10-19T05:39:46.772Z,8
2017-10-19T05:40:47.088Z,12
2017-10-19T05:41:47.063Z,12
2017-10-19T05:42:47.042Z,16
2017-10-19T05:43:46.696Z,16
2017-10-19T05:44:47.011Z,24
2017-10-19T05:45:46.668Z,24
2017-10-19T05:46:46.962Z,28
2017-10-19T05:47:46.612Z,32
2017-10-19T05:48:46.950Z,40
2017-10-19T05:49:46.592Z,40
2017-10-19T05:50:46.891Z,48
2017-10-19T05:51:46.532Z,52
2017-10-19T05:52:46.541Z,64
2017-10-19T05:53:46.497Z,68
2017-10-19T05:54:46.811Z,76
2017-10-19T05:55:46.453Z,88
2017-10-19T05:56:46.543Z,96
2017-10-19T05:57:46.431Z,104
2017-10-19T05:58:46.713Z,116
2017-10-19T05:59:46.723Z,124
2017-10-19T06:00:46.703Z,136
2017-10-19T06:01:46.667Z,140
2017-10-19T06:02:46.007Z,156
2017-10-19T06:03:46.638Z,164
2017-10-19T06:04:46.600Z,176
2017-10-19T06:05:46.261Z,196
2017-10-19T06:06:45.925Z,216
2017-10-19T06:07:46.225Z,232
2017-10-19T06:08:46.542Z,252
2017-10-19T06:09:46.251Z,268
2017-10-19T06:10:46.530Z,280
2017-10-19T06:11:46.175Z,296
2017-10-19T06:12:46.190Z,308
2017-10-19T06:13:46.278Z,320
2017-10-19T06:14:45.862Z,324
2017-10-19T06:15:45.801Z,332
2017-10-19T06:16:46.061Z,336
2017-10-19T06:17:46.100Z,348
2017-10-19T06:18:46.102Z,368
2017-10-19T06:19:45.991Z,400
2017-10-19T06:20:46.320Z,428
2017-10-19T06:21:45.699Z,460
2017-10-19T06:22:45.927Z,488
2017-10-19T06:23:45.600Z,512
2017-10-19T06:24:46.218Z,540
2017-10-19T06:25:45.664Z,568
2017-10-19T06:26:45.569Z,592
2017-10-19T06:27:45.558Z,628
2017-10-19T06:28:45.920Z,724
2017-10-19T06:29:45.810Z,836
2017-10-19T06:30:45.883Z,892
2017-10-19T06:31:45.832Z,936
2017-10-19T06:32:45.830Z,1020
2017-10-19T06:33:46.041Z,1064
2017-10-19T06:34:45.382Z,1108
2017-10-19T06:35:45.679Z,1184
2017-10-19T06:36:45.664Z,1336
2017-10-19T06:37:45.436Z,1472
2017-10-19T06:38:45.631Z,1556
2017-10-19T06:39:45.638Z,1640
2017-10-19T06:40:45.673Z,1772
2017-10-19T06:41:45.584Z,2008
2017-10-19T06:42:45.593Z,2352
2017-10-19T06:43:45.856Z,2600
2017-10-19T06:44:45.627Z,2704
2017-10-19T06:45:45.500Z,3068
2017-10-19T06:46:45.817Z,3644
2017-10-19T06:47:45.507Z,4200
2017-10-19T06:48:45.500Z,4764
2017-10-19T06:49:45.769Z,5120
2017-10-19T06:50:45.430Z,4956
2017-10-19T06:51:45.730Z,4412
2017-10-19T06:52:45.683Z,3656
2017-10-19T06:53:45.667Z,3476
2017-10-19T06:54:45.668Z,3608
2017-10-19T06:55:45.674Z,3792
2017-10-19T06:56:44.980Z,3988
2017-10-19T06:57:45.604Z,4184
2017-10-19T06:58:45.272Z,4344
2017-10-19T06:59:45.585Z,4440
2017-10-19T07:00:45.250Z,4520
2017-10-19T07:01:45.549Z,4616
2017-10-19T07:02:45.528Z,4736
2017-10-19T07:03:45.530Z,4892
2017-10-19T07:04:45.481Z,5064
2017-10-19T07:05:45.484Z,5228
2017-10-19T07:06:45.455Z,5376
2017-10-19T07:07:45.459Z,5524
2017-10-19T07:08:45.413Z,5692
2017-10-19T07:09:45.412Z,6120
2017-10-19T07:10:45.445Z,8792
2017-10-19T07:11:45.072Z,12672
2017-10-19T07:12:45.026Z,13152
2017-10-19T07:13:45.019Z,12320
2017-10-19T07:14:45.000Z,12864
2017-10-19T07:15:44.975Z,14496
2017-10-19T07:16:44.971Z,15424
2017-10-19T07:17:45.282Z,15200
2017-10-19T07:18:45.275Z,15776
2017-10-19T07:19:44.602Z,17344
2017-10-19T07:20:45.226Z,18112
2017-10-19T07:21:44.882Z,18304
2017-10-19T07:22:44.669Z,17536
2017-10-19T07:23:44.849Z,16832
2017-10-19T07:24:45.179Z,17536
2017-10-19T07:25:45.254Z,19136
2017-10-19T07:26:45.192Z,19904
2017-10-19T07:27:45.126Z,19168
2017-10-19T07:28:44.790Z,18816
2017-10-19T07:29:45.182Z,20032
2017-10-19T07:30:44.856Z,20960
2017-10-19T07:31:44.727Z,20192
2017-10-19T07:32:45.051Z,20000
2017-10-19T07:33:45.044Z,21344
2017-10-19T07:34:45.018Z,22976
2017-10-19T07:35:44.693Z,22848
2017-10-19T07:36:44.451Z,22752
2017-10-19T07:37:44.986Z,23424
2017-10-19T07:38:44.661Z,23168
2017-10-19T07:39:44.638Z,22720
2017-10-19T07:40:45.011Z,24800
2017-10-19T07:41:44.301Z,27104
2017-10-19T07:42:44.343Z,26816
2017-10-19T07:43:44.289Z,26496
2017-10-19T07:44:44.600Z,28256
2017-10-19T07:45:44.572Z,29856
2017-10-19T07:46:44.554Z,29792
2017-10-19T07:47:44.252Z,28992
2017-10-19T07:48:44.892Z,29376
2017-10-19T07:49:44.203Z,30112
2017-10-19T07:50:44.853Z,31456
2017-10-19T07:51:44.634Z,31488
2017-10-19T07:52:44.955Z,30272
2017-10-19T07:53:44.479Z,29920
2017-10-19T07:54:44.782Z,31872
2017-10-19T07:55:44.451Z,34016
2017-10-19T07:56:44.123Z,34752
2017-10-19T07:57:43.839Z,34656
2017-10-19T07:58:44.733Z,34464
2017-10-19T07:59:44.738Z,34176
2017-10-19T08:00:44.755Z,33952
2017-10-19T08:01:44.381Z,35776
2017-10-19T08:02:44.423Z,35232
2017-10-19T08:03:44.375Z,34816
2017-10-19T08:04:44.681Z,35968
2017-10-19T08:05:44.663Z,37856
2017-10-19T08:06:44.694Z,36704
2017-10-19T08:07:44.330Z,32928
2017-10-19T08:08:44.642Z,39616
2017-10-19T08:09:44.324Z,40640
2017-10-19T08:10:44.639Z,39840
2017-10-19T08:11:44.286Z,40448
2017-10-19T08:12:44.350Z,41120
2017-10-19T08:13:44.277Z,38784
2017-10-19T08:14:44.273Z,38656
2017-10-19T08:15:44.252Z,38208
2017-10-19T08:16:44.581Z,37184
2017-10-19T08:17:44.236Z,40320
2017-10-19T08:18:44.572Z,42112
2017-10-19T08:19:44.224Z,41856
2017-10-19T08:20:44.550Z,42976
2017-10-19T08:21:44.203Z,44256
2017-10-19T08:22:44.563Z,44896
2017-10-19T08:23:44.616Z,44128
2017-10-19T08:24:44.513Z,41312
2017-10-19T08:25:44.549Z,37792
2017-10-19T08:26:44.603Z,31872
2017-10-19T08:27:44.253Z,32288
2017-10-19T08:28:43.504Z,39456
2017-10-19T08:29:44.137Z,40320
2017-10-19T08:30:44.190Z,41376
2017-10-19T08:31:44.503Z,39584
2017-10-19T08:32:44.533Z,38720
2017-10-19T08:33:44.531Z,39456
2017-10-19T08:34:44.488Z,42304
2017-10-19T08:35:44.431Z,42080
2017-10-19T08:36:44.084Z,42176
2017-10-19T08:37:43.765Z,46112
2017-10-19T08:38:44.069Z,46880
2017-10-19T08:39:43.735Z,45792
2017-10-19T08:40:44.385Z,46240
2017-10-19T08:41:44.067Z,45568
2017-10-19T08:42:44.358Z,44032
2017-10-19T08:43:44.063Z,46976
2017-10-19T08:44:44.014Z,45888
2017-10-19T08:45:44.010Z,46336
2017-10-19T08:46:44.029Z,47200
2017-10-19T08:47:43.672Z,45184
2017-10-19T08:48:43.704Z,49440
2017-10-19T08:49:44.303Z,45952
2017-10-19T08:50:44.295Z,43808
2017-10-19T08:51:43.964Z,44640
2017-10-19T08:52:44.283Z,42336
2017-10-19T08:53:44.296Z,45312
2017-10-19T08:54:43.964Z,43584
2017-10-19T08:55:44.003Z,47168
2017-10-19T08:56:43.943Z,47616
2017-10-19T08:57:44.254Z,46624
2017-10-19T08:58:43.934Z,48160
2017-10-19T08:59:43.892Z,47936
2017-10-19T09:00:44.225Z,46336
2017-10-19T09:01:44.221Z,47040
2017-10-19T09:02:43.955Z,45440
2017-10-19T09:03:43.871Z,44928
2017-10-19T09:04:44.191Z,48288
2017-10-19T09:05:44.187Z,48992
2017-10-19T09:06:43.550Z,47744
2017-10-19T09:07:43.584Z,47520
2017-10-19T09:08:44.157Z,43072
2017-10-19T09:09:44.303Z,40864
2017-10-19T09:10:43.848Z,40896
2017-10-19T09:11:43.834Z,36800
2017-10-19T09:12:44.202Z,35296
2017-10-19T09:13:43.493Z,35968
2017-10-19T09:14:44.183Z,36608
2017-10-19T09:15:43.808Z,38336
2017-10-19T09:16:43.778Z,38816
2017-10-19T09:17:44.126Z,37024
2017-10-19T09:18:43.132Z,34720
2017-10-19T09:19:44.179Z,35264
2017-10-19T09:20:43.765Z,36320
2017-10-19T09:21:44.102Z,37792
2017-10-19T09:22:43.493Z,39392
2017-10-19T09:23:43.765Z,37664
2017-10-19T09:24:43.745Z,38176
2017-10-19T09:25:43.742Z,39072
2017-10-19T09:26:43.746Z,38880
2017-10-19T09:27:44.046Z,38112
2017-10-19T09:28:43.718Z,37472
2017-10-19T09:29:44.055Z,36864
2017-10-19T09:30:43.710Z,36832
2017-10-19T09:31:43.703Z,36832
2017-10-19T09:32:43.702Z,36064
2017-10-19T09:33:43.685Z,38688
2017-10-19T09:34:44.035Z,38592
2017-10-19T09:35:44.024Z,39616
2017-10-19T09:36:43.669Z,39296
2017-10-19T09:37:43.995Z,40128
2017-10-19T09:38:43.986Z,40800
2017-10-19T09:39:43.334Z,41216
2017-10-19T09:40:43.974Z,39936
2017-10-19T09:41:44.075Z,38752
2017-10-19T09:42:43.972Z,38784
2017-10-19T09:43:42.983Z,38208
2017-10-19T09:44:43.614Z,39040
2017-10-19T09:45:43.994Z,38656
2017-10-19T09:46:43.614Z,38080
2017-10-19T09:47:43.933Z,37536
2017-10-19T09:48:43.935Z,36032
2017-10-19T09:49:43.676Z,34528
2017-10-19T09:50:43.909Z,33920
2017-10-19T09:51:43.935Z,35008
2017-10-19T09:52:43.264Z,35360
2017-10-19T09:53:43.573Z,34464
2017-10-19T09:54:43.905Z,33920
2017-10-19T09:55:43.583Z,35040
2017-10-19T09:56:43.904Z,34400
2017-10-19T09:57:43.885Z,32832
2017-10-19T09:58:43.874Z,33184
2017-10-19T09:59:43.886Z,32288
2017-10-19T10:00:43.551Z,31168
2017-10-19T10:01:43.853Z,31776
2017-10-19T10:02:43.861Z,31872
2017-10-19T10:03:43.834Z,31328
2017-10-19T10:04:43.828Z,31936
2017-10-19T10:05:43.187Z,33312
2017-10-19T10:06:43.837Z,32096
2017-10-19T10:07:43.864Z,29152
2017-10-19T10:08:43.838Z,28960
2017-10-19T10:09:43.184Z,31616
2017-10-19T10:10:43.833Z,31168
2017-10-19T10:11:43.493Z,29952
2017-10-19T10:12:43.542Z,28032
2017-10-19T10:13:43.464Z,30048
2017-10-19T10:14:43.907Z,29568
2017-10-19T10:15:43.786Z,29344
2017-10-19T10:16:43.441Z,28160
2017-10-19T10:17:43.769Z,25888
2017-10-19T10:18:43.753Z,28192
2017-10-19T10:19:43.763Z,28192
2017-10-19T10:20:43.770Z,25408
2017-10-19T10:21:43.420Z,25120
2017-10-19T10:22:43.750Z,23552
2017-10-19T10:23:43.787Z,21600
2017-10-19T10:24:43.400Z,23904
2017-10-19T10:25:43.747Z,22944
2017-10-19T10:26:43.879Z,20544
2017-10-19T10:27:43.391Z,22016
2017-10-19T10:28:43.760Z,23392
2017-10-19T10:29:43.694Z,23680
2017-10-19T10:30:43.370Z,27264
2017-10-19T10:31:43.357Z,25440
2017-10-19T10:32:43.686Z,16832
2017-10-19T10:33:43.351Z,15680
2017-10-19T10:34:43.343Z,15648
2017-10-19T10:35:43.014Z,16256
2017-10-19T10:36:43.324Z,16800
2017-10-19T10:37:43.663Z,17440
2017-10-19T10:38:43.662Z,17504
2017-10-19T10:39:43.319Z,17632
2017-10-19T10:40:43.304Z,18080
2017-10-19T10:41:43.624Z,18080
2017-10-19T10:42:43.617Z,18880
2017-10-19T10:43:43.308Z,21376
2017-10-19T10:44:43.268Z,22816
2017-10-19T10:45:43.273Z,24416
2017-10-19T10:46:42.962Z,25856
2017-10-19T10:47:43.275Z,25504
2017-10-19T10:48:43.237Z,25920
2017-10-19T10:49:43.254Z,25376
2017-10-19T10:50:43.244Z,27680
2017-10-19T10:51:43.263Z,27808
2017-10-19T10:52:42.592Z,27904
2017-10-19T10:53:43.232Z,27200
2017-10-19T10:54:43.234Z,26176
2017-10-19T10:55:43.235Z,25856
2017-10-19T10:56:43.202Z,25952
2017-10-19T10:57:43.520Z,25728
2017-10-19T10:58:43.180Z,25056
2017-10-19T10:59:43.271Z,25600
2017-10-19T11:00:43.161Z,24576
2017-10-19T11:01:43.169Z,24576
2017-10-19T11:02:43.501Z,25312
2017-10-19T11:03:43.161Z,24064
2017-10-19T11:04:43.450Z,23392
2017-10-19T11:05:43.244Z,21280
2017-10-19T11:06:43.482Z,23008
2017-10-19T11:07:43.170Z,21632
2017-10-19T11:08:43.443Z,21984
2017-10-19T11:09:43.125Z,22080
2017-10-19T11:10:43.112Z,21600
2017-10-19T11:11:43.466Z,21120
2017-10-19T11:12:43.410Z,20416
2017-10-19T11:13:43.439Z,19232
2017-10-19T11:14:43.419Z,17760
2017-10-19T11:15:43.083Z,18112
2017-10-19T11:16:43.381Z,17024
2017-10-19T11:17:43.371Z,16672
2017-10-19T11:18:43.388Z,13932
2017-10-19T11:19:42.711Z,12912
2017-10-19T11:20:43.379Z,12904
2017-10-19T11:21:43.371Z,13584
2017-10-19T11:22:43.360Z,13656
2017-10-19T11:23:43.028Z,12936
2017-10-19T11:24:43.329Z,11748
2017-10-19T11:25:43.351Z,11592
2017-10-19T11:26:43.315Z,14592
2017-10-19T11:27:43.030Z,15136
2017-10-19T11:28:43.283Z,16320
2017-10-19T11:29:43.316Z,16384
2017-10-19T11:30:43.304Z,16672
2017-10-19T11:31:43.267Z,16480
2017-10-19T11:32:43.280Z,17312
2017-10-19T11:33:43.250Z,16928
2017-10-19T11:34:42.586Z,16576
2017-10-19T11:35:43.226Z,16864
2017-10-19T11:36:42.962Z,14944
2017-10-19T11:37:43.227Z,12184
2017-10-19T11:38:43.225Z,10304
2017-10-19T11:39:43.310Z,10108
2017-10-19T11:40:43.287Z,9924
2017-10-19T11:41:43.211Z,10324
2017-10-19T11:42:43.282Z,11620
2017-10-19T11:43:42.509Z,13152
2017-10-19T11:44:43.164Z,15712
2017-10-19T11:45:43.176Z,15264
2017-10-19T11:46:43.246Z,13408
2017-10-19T11:47:43.144Z,13300
2017-10-19T11:48:43.142Z,13028
2017-10-19T11:49:43.114Z,12572
2017-10-19T11:50:43.190Z,12180
2017-10-19T11:51:43.113Z,12204
2017-10-19T11:52:43.131Z,12840
2017-10-19T11:53:42.750Z,12748
2017-10-19T11:54:43.062Z,12748
2017-10-19T11:55:43.111Z,11776
2017-10-19T11:56:42.783Z,11440
2017-10-19T11:57:42.691Z,11532
2017-10-19T11:58:43.007Z,11660
2017-10-19T11:59:43.053Z,11496
2017-10-19T12:00:42.665Z,11872
2017-10-19T12:01:42.336Z,12272
2017-10-19T12:02:42.664Z,11964
2017-10-19T12:03:42.986Z,11696
2017-10-19T12:04:42.320Z,11876
2017-10-19T12:05:42.621Z,11800
2017-10-19T12:06:42.628Z,11356
2017-10-19T12:07:42.931Z,11516
2017-10-19T12:08:42.920Z,11192
2017-10-19T12:09:42.607Z,10980
2017-10-19T12:10:42.586Z,10884
2017-10-19T12:11:42.871Z,11788
2017-10-19T12:12:42.587Z,12648
2017-10-19T12:13:42.864Z,13356
2017-10-19T12:14:42.862Z,11408
2017-10-19T12:15:42.207Z,13576
2017-10-19T12:16:42.512Z,14436
2017-10-19T12:17:42.529Z,14040
2017-10-19T12:18:42.825Z,13400
2017-10-19T12:19:42.813Z,12992
2017-10-19T12:20:42.824Z,12880
2017-10-19T12:21:42.781Z,13936
2017-10-19T12:22:42.770Z,15232
2017-10-19T12:23:42.771Z,14812
2017-10-19T12:24:42.440Z,14180
2017-10-19T12:25:42.763Z,13824
2017-10-19T12:26:42.548Z,15424
2017-10-19T12:27:42.869Z,16128
2017-10-19T12:28:42.717Z,16224
2017-10-19T12:29:42.381Z,16032
2017-10-19T12:30:42.718Z,16896
2017-10-19T12:31:42.034Z,16160
2017-10-19T12:32:42.355Z,15936
2017-10-19T12:33:42.342Z,16512
2017-10-19T12:34:42.659Z,15584
2017-10-19T12:35:42.679Z,14584
2017-10-19T12:36:42.309Z,16256
2017-10-19T12:37:42.310Z,17472
2017-10-19T12:38:42.391Z,17344
2017-10-19T12:39:41.958Z,17312
2017-10-19T12:40:42.623Z,16224
2017-10-19T12:41:42.594Z,16032
2017-10-19T12:42:42.261Z,15392
2017-10-19T12:43:42.551Z,13312
2017-10-19T12:44:42.230Z,12424
2017-10-19T12:45:41.934Z,12088
2017-10-19T12:46:41.882Z,12928
2017-10-19T12:47:41.883Z,12756
2017-10-19T12:48:42.202Z,12912
2017-10-19T12:49:42.175Z,12352
2017-10-19T12:50:42.498Z,12240
2017-10-19T12:51:42.178Z,12088
2017-10-19T12:52:42.154Z,12088
2017-10-19T12:53:42.136Z,12440
2017-10-19T12:54:42.152Z,12308
2017-10-19T12:55:42.111Z,12184
2017-10-19T12:56:41.771Z,12180
2017-10-19T12:57:42.108Z,11588
2017-10-19T12:58:42.400Z,10416
2017-10-19T12:59:42.410Z,10216
2017-10-19T13:00:42.411Z,11940
2017-10-19T13:01:42.091Z,12616
2017-10-19T13:02:42.393Z,13220
2017-10-19T13:03:42.040Z,13004
2017-10-19T13:04:42.341Z,12708
2017-10-19T13:05:42.351Z,12660
2017-10-19T13:06:41.999Z,12184
2017-10-19T13:07:42.330Z,12052
2017-10-19T13:08:42.309Z,11148
2017-10-19T13:09:42.302Z,10184
2017-10-19T13:10:41.970Z,9000
2017-10-19T13:11:41.957Z,8704
2017-10-19T13:12:42.272Z,8424
2017-10-19T13:13:41.595Z,8308
2017-10-19T13:14:42.239Z,8264
2017-10-19T13:15:42.228Z,7892
2017-10-19T13:16:42.361Z,7636
2017-10-19T13:17:41.889Z,7712
2017-10-19T13:18:41.893Z,7636
2017-10-19T13:19:42.179Z,7716
2017-10-19T13:20:41.861Z,7160
2017-10-19T13:21:41.520Z,6712
2017-10-19T13:22:41.842Z,6816
2017-10-19T13:23:41.843Z,6576
2017-10-19T13:24:41.480Z,6480
2017-10-19T13:25:41.801Z,6240
2017-10-19T13:26:42.190Z,6088
2017-10-19T13:27:42.200Z,5944
2017-10-19T13:28:42.101Z,5508
2017-10-19T13:29:41.762Z,5684
2017-10-19T13:30:42.090Z,5836
2017-10-19T13:31:42.072Z,6556
2017-10-19T13:32:42.038Z,7328
2017-10-19T13:33:41.742Z,7236
2017-10-19T13:34:41.380Z,6848
2017-10-19T13:35:42.012Z,6808
2017-10-19T13:36:41.723Z,6880
2017-10-19T13:37:42.062Z,7096
2017-10-19T13:38:41.735Z,7248
2017-10-19T13:39:41.642Z,7440
2017-10-19T13:40:42.052Z,7492
2017-10-19T13:41:41.631Z,7220
2017-10-19T13:42:42.001Z,6980